Time;durP1;ratioP1;P1;durP2;ratioP2;P2;SDS_P1;SDS_P2;PMS_P1;PMS_P2;Temp;Humidity;BMP_temperature;BMP_pressure;BME280_temperature;BME280_humidity;BME280_pressure;Samples;Min_cycle;Max_cycle;Signal;HPM_P1;HPM_P2
2022/04/01 00:02:12;;;;;;;3.63;2.70;;;-0.40;99.90;;;;;;5035732;28;20513;-77
2022/04/01 00:04:39;;;;;;;4.63;2.80;;;-0.40;99.90;;;;;;5044951;28;20517;-77
2022/04/01 00:07:06;;;;;;;3.97;2.55;;;0.10;99.90;;;;;;5031912;28;20052;-77
2022/04/01 00:09:31;;;;;;;4.75;2.85;;;-0.40;99.90;;;;;;5036233;28;20479;-78
2022/04/01 00:11:57;;;;;;;7.35;3.30;;;0.90;99.90;;;;;;5034826;28;20036;-77
2022/04/01 00:14:24;;;;;;;5.80;2.95;;;0.00;99.90;;;;;;5042819;28;20132;-77
2022/04/01 00:16:51;;;;;;;7.65;3.17;;;-0.10;99.90;;;;;;5032825;28;20554;-77
2022/04/01 00:19:18;;;;;;;5.03;2.97;;;-0.40;99.90;;;;;;5031936;28;20440;-77
2022/04/01 00:21:43;;;;;;;6.30;3.00;;;-0.40;99.90;;;;;;5039420;28;20039;-78
2022/04/01 00:24:09;;;;;;;5.03;2.78;;;-0.40;99.90;;;;;;5036153;28;20037;-78
2022/04/01 00:26:35;;;;;;;6.35;3.05;;;-0.40;99.90;;;;;;5029721;28;20041;-77
2022/04/01 00:29:01;;;;;;;9.50;3.15;;;-0.40;99.90;;;;;;5057205;28;20052;-77
2022/04/01 00:31:27;;;;;;;4.78;2.70;;;-0.40;99.90;;;;;;5023148;28;20079;-77
2022/04/01 00:34:15;;;;;;;4.72;2.83;;;-0.40;99.90;;;;;;5018732;28;20037;-77
2022/04/01 00:36:38;;;;;;;3.83;2.90;;;-0.40;99.90;;;;;;5023996;28;20042;-77
2022/04/01 00:39:04;;;;;;;6.00;2.88;;;-0.50;99.90;;;;;;5019363;28;20384;-77
2022/04/01 00:41:30;;;;;;;8.93;3.10;;;0.00;99.90;;;;;;5039647;28;20088;-76
2022/04/01 00:44:16;;;;;;;5.00;2.40;;;-0.50;99.90;;;;;;5029233;28;20107;-77
2022/04/01 00:46:47;;;;;;;4.55;2.58;;;-0.50;99.90;;;;;;5029815;28;20099;-78
2022/04/01 00:49:14;;;;;;;3.88;2.70;;;-0.40;99.90;;;;;;5028837;28;20041;-77
2022/04/01 00:51:45;;;;;;;4.88;2.53;;;0.10;99.90;;;;;;5028789;28;20041;-78
2022/04/01 00:54:12;;;;;;;8.95;2.42;;;0.40;99.90;;;;;;5029297;28;20041;-77
2022/04/01 00:56:38;;;;;;;3.10;2.20;;;-0.50;99.90;;;;;;5029952;28;20041;-77
2022/04/01 00:59:06;;;;;;;5.43;3.05;;;-0.50;99.90;;;;;;5027667;28;20407;-76
2022/04/01 01:01:34;;;;;;;4.28;2.38;;;-0.50;99.90;;;;;;5029998;28;20033;-77
2022/04/01 01:04:07;;;;;;;4.68;2.40;;;-0.50;99.90;;;;;;5026171;28;20038;-77
2022/04/01 01:06:37;;;;;;;3.75;2.20;;;-0.50;99.90;;;;;;5029419;28;20519;-77
2022/04/01 01:09:03;;;;;;;4.82;2.30;;;-0.30;99.90;;;;;;5030193;28;20041;-77
2022/04/01 01:11:31;;;;;;;3.63;2.28;;;-0.50;99.90;;;;;;5021965;28;20487;-77
2022/04/01 01:13:56;;;;;;;4.57;2.22;;;-0.50;99.90;;;;;;5029562;28;20496;-76
2022/04/01 01:16:22;;;;;;;2.65;2.30;;;-0.50;99.90;;;;;;5028185;28;20120;-76
2022/04/01 01:19:12;;;;;;;4.25;2.40;;;-0.50;99.90;;;;;;5030247;28;20509;-76
2022/04/01 01:21:39;;;;;;;6.68;2.45;;;-0.50;99.90;;;;;;5024503;28;20438;-75
2022/04/01 01:24:06;;;;;;;5.95;2.55;;;-0.40;99.90;;;;;;5004124;28;20077;-76
2022/04/01 01:26:34;;;;;;;3.78;2.10;;;-0.40;99.90;;;;;;5024380;28;20041;-75
2022/04/01 01:29:00;;;;;;;3.13;2.30;;;-0.40;99.90;;;;;;5022604;28;20041;-75
2022/04/01 01:31:27;;;;;;;4.72;2.30;;;-0.40;99.90;;;;;;5018666;28;20050;-76
2022/04/01 01:33:57;;;;;;;5.25;2.40;;;-0.40;99.90;;;;;;5029171;28;20430;-76
2022/04/01 01:36:25;;;;;;;3.50;2.15;;;-0.10;99.90;;;;;;5029009;28;20499;-75
2022/04/01 01:38:51;;;;;;;3.08;2.30;;;-0.40;99.90;;;;;;5029559;28;20121;-75
2022/04/01 01:41:17;;;;;;;6.60;2.53;;;0.00;99.90;;;;;;5022052;28;20117;-75
2022/04/01 01:43:43;;;;;;;3.47;2.15;;;-0.30;99.90;;;;;;5012530;28;20331;-75
2022/04/01 01:46:10;;;;;;;3.33;2.20;;;-0.40;99.90;;;;;;5023657;28;20502;-75
2022/04/01 01:48:36;;;;;;;4.00;2.40;;;-0.30;99.90;;;;;;5020521;28;20060;-75
2022/04/01 01:56:31;;;;;;;3.63;2.60;;;-0.40;99.90;;;;;;5010346;28;20097;-75
2022/04/01 01:58:57;;;;;;;3.05;2.25;;;-0.30;99.90;;;;;;5012076;28;20458;-75
2022/04/01 02:01:23;;;;;;;4.53;2.90;;;-0.30;99.90;;;;;;5027527;28;20048;-76
2022/04/01 02:03:51;;;;;;;5.25;2.60;;;-0.40;99.90;;;;;;5028512;28;20049;-76
2022/04/01 02:06:16;;;;;;;4.45;2.42;;;-0.40;99.90;;;;;;5027045;28;20398;-76
2022/04/01 02:08:42;;;;;;;3.72;2.30;;;-0.10;99.90;;;;;;5018932;28;20049;-75
2022/04/01 02:11:08;;;;;;;3.58;2.38;;;-0.30;99.90;;;;;;5027610;28;20049;-76
2022/04/01 02:13:34;;;;;;;4.18;2.70;;;-0.30;99.90;;;;;;5011446;28;20041;-76
2022/04/01 02:16:01;;;;;;;4.45;2.55;;;-0.30;99.90;;;;;;5038160;28;20045;-75
2022/04/01 02:18:27;;;;;;;6.65;2.47;;;-0.30;99.90;;;;;;5023560;28;20483;-75
2022/04/01 02:20:53;;;;;;;4.57;2.40;;;-0.30;99.90;;;;;;5016494;28;20041;-76
2022/04/01 02:23:19;;;;;;;6.18;2.67;;;0.20;99.90;;;;;;5012782;28;20029;-76
2022/04/01 02:25:44;;;;;;;9.20;2.63;;;0.30;99.90;;;;;;5029394;28;20129;-76
2022/04/01 02:28:12;;;;;;;5.90;2.60;;;-0.30;99.90;;;;;;5029073;28;20033;-76
2022/04/01 02:30:38;;;;;;;3.80;2.30;;;-0.30;99.90;;;;;;5043209;28;20427;-75
2022/04/01 02:33:06;;;;;;;8.00;2.45;;;-0.30;99.90;;;;;;5035847;28;20041;-76
2022/04/01 02:35:32;;;;;;;5.00;2.40;;;-0.30;99.90;;;;;;5032014;28;20048;-76
2022/04/01 02:37:58;;;;;;;5.10;2.63;;;-0.30;99.90;;;;;;5043345;28;20049;-76
2022/04/01 02:40:24;;;;;;;5.07;2.38;;;-0.30;99.90;;;;;;5027243;28;20076;-75
2022/04/01 02:42:53;;;;;;;4.25;2.17;;;0.10;99.90;;;;;;5033585;28;20037;-76
2022/04/01 02:45:21;;;;;;;6.53;2.80;;;-0.30;99.90;;;;;;5034051;28;20085;-75
2022/04/01 02:47:48;;;;;;;4.38;2.78;;;-0.30;99.90;;;;;;5042594;28;20508;-76
2022/04/01 02:50:13;;;;;;;3.08;2.15;;;-0.30;99.90;;;;;;5032039;28;20041;-76
2022/04/01 02:52:39;;;;;;;4.90;2.33;;;-0.30;99.90;;;;;;5049075;28;20041;-76
2022/04/01 02:55:06;;;;;;;4.03;2.10;;;-0.30;99.90;;;;;;5038854;28;20081;-76
2022/04/01 02:57:33;;;;;;;3.50;2.15;;;-0.30;99.90;;;;;;5034869;28;20382;-76
2022/04/01 02:59:59;;;;;;;3.50;2.10;;;-0.30;99.90;;;;;;5043933;28;20402;-76
2022/04/01 03:02:25;;;;;;;2.83;2.17;;;-0.30;99.90;;;;;;5047058;28;20121;-76
2022/04/01 03:04:51;;;;;;;6.05;2.58;;;-0.40;99.90;;;;;;5031936;28;20116;-76
2022/04/01 03:07:16;;;;;;;6.03;2.22;;;0.10;99.90;;;;;;5034983;28;20044;-76
2022/04/01 03:09:42;;;;;;;4.60;2.10;;;-0.30;99.90;;;;;;5031452;28;20033;-76
2022/04/01 03:12:08;;;;;;;5.47;2.22;;;-0.30;99.90;;;;;;5044532;28;20163;-76
2022/04/01 03:14:34;;;;;;;4.00;2.05;;;-0.30;99.90;;;;;;5033227;28;20030;-76
2022/04/01 03:17:00;;;;;;;4.47;2.30;;;-0.30;99.90;;;;;;5034719;28;20091;-75
2022/04/01 03:19:28;;;;;;;4.05;2.30;;;-0.40;99.90;;;;;;5035433;28;20111;-76
2022/04/01 03:21:55;;;;;;;4.25;2.40;;;-0.20;99.90;;;;;;5037314;28;20092;-76
2022/04/01 03:24:21;;;;;;;3.00;2.22;;;0.10;99.90;;;;;;5035364;28;20465;-76
2022/04/01 03:26:47;;;;;;;5.65;2.70;;;-0.40;99.90;;;;;;5032218;28;20049;-76
2022/04/01 03:29:12;;;;;;;3.90;2.22;;;-0.40;99.90;;;;;;5041293;28;20045;-76
2022/04/01 03:31:40;;;;;;;8.18;2.60;;;-0.30;99.90;;;;;;5045147;28;20060;-76
2022/04/01 03:34:06;;;;;;;6.30;2.55;;;-0.10;99.90;;;;;;5046013;28;20041;-76
2022/04/01 03:36:33;;;;;;;5.32;2.55;;;-0.40;99.90;;;;;;5018583;28;20057;-76
2022/04/01 03:39:00;;;;;;;3.00;2.30;;;-0.40;99.90;;;;;;5039034;28;20209;-76
2022/04/01 03:41:26;;;;;;;3.20;2.60;;;-0.40;99.90;;;;;;5031834;28;20091;-76
2022/04/01 03:44:00;;;;;;;3.75;2.50;;;-0.40;99.90;;;;;;5033067;28;20092;-76
2022/04/01 03:46:45;;;;;;;4.65;2.33;;;-0.40;99.90;;;;;;5025745;28;20545;-76
2022/04/01 03:49:16;;;;;;;4.30;2.92;;;-0.40;99.90;;;;;;5032505;28;20459;-76
2022/04/01 03:51:43;;;;;;;6.45;2.53;;;-0.40;99.90;;;;;;5028282;28;20026;-76
2022/04/01 03:54:10;;;;;;;3.53;2.28;;;0.00;99.90;;;;;;5038909;28;20033;-76
2022/04/01 03:56:37;;;;;;;3.30;2.10;;;-0.40;99.90;;;;;;5016962;28;20108;-75
2022/04/01 03:59:05;;;;;;;4.45;2.63;;;0.30;99.90;;;;;;5042599;28;20038;-76
2022/04/01 04:01:32;;;;;;;3.58;2.38;;;-0.10;99.90;;;;;;5036484;28;20080;-76
2022/04/01 04:04:00;;;;;;;9.13;2.85;;;-0.30;99.90;;;;;;5043168;28;20514;-76
2022/04/01 04:06:26;;;;;;;4.03;2.30;;;-0.30;99.90;;;;;;5030227;28;20085;-76
2022/04/01 04:08:58;;;;;;;5.15;2.47;;;-0.10;99.90;;;;;;5041150;28;20041;-76
2022/04/01 04:11:26;;;;;;;3.03;2.22;;;-0.30;99.90;;;;;;5018636;28;20037;-76
2022/04/01 04:13:53;;;;;;;3.78;2.28;;;-0.10;99.90;;;;;;5045006;28;20041;-76
2022/04/01 04:16:31;;;;;;;2.72;2.20;;;-0.20;99.90;;;;;;5036441;28;20042;-76
2022/04/01 04:19:07;;;;;;;5.00;2.30;;;-0.20;99.90;;;;;;5063441;28;20045;-76
2022/04/01 04:21:55;;;;;;;3.65;2.20;;;-0.20;99.90;;;;;;5030316;28;20084;-76
2022/04/01 04:24:30;;;;;;;4.10;2.03;;;-0.20;99.90;;;;;;5040974;28;20151;-76
2022/04/01 04:27:10;;;;;;;3.78;2.33;;;0.20;99.90;;;;;;5030997;28;20100;-77
2022/04/01 04:29:49;;;;;;;4.72;2.20;;;-0.10;99.90;;;;;;5033086;28;20037;-76
2022/04/01 04:32:28;;;;;;;2.95;2.03;;;-0.10;99.90;;;;;;5055159;28;20043;-76
2022/04/01 04:34:56;;;;;;;6.03;2.20;;;-0.10;99.90;;;;;;5036208;28;20053;-75
2022/04/01 04:37:26;;;;;;;4.13;2.17;;;0.10;99.90;;;;;;5029725;28;20049;-76
2022/04/01 04:39:53;;;;;;;3.53;2.20;;;0.00;99.90;;;;;;5032998;28;20046;-76
2022/04/01 04:42:20;;;;;;;2.20;1.95;;;0.00;99.90;;;;;;5031599;28;20077;-76
2022/04/01 04:44:48;;;;;;;3.83;2.10;;;0.00;99.90;;;;;;5039130;28;20067;-76
2022/04/01 04:47:18;;;;;;;3.20;2.10;;;0.00;99.90;;;;;;5042514;28;20128;-76
2022/04/01 04:49:47;;;;;;;2.70;2.08;;;0.00;99.90;;;;;;5043799;28;20056;-76
2022/04/01 04:52:15;;;;;;;3.83;2.30;;;0.10;99.90;;;;;;5031030;28;20148;-76
2022/04/01 04:54:41;;;;;;;2.70;1.95;;;0.50;99.90;;;;;;5040280;28;20041;-76
2022/04/01 04:57:07;;;;;;;3.83;2.33;;;0.10;99.90;;;;;;5039137;28;20053;-76
2022/04/01 04:59:35;;;;;;;6.63;2.60;;;0.10;99.90;;;;;;5049803;28;20072;-76
2022/04/01 05:02:06;;;;;;;3.13;2.22;;;0.20;99.90;;;;;;5045403;28;20033;-76
2022/04/01 05:04:50;;;;;;;5.20;2.25;;;0.20;99.90;;;;;;5039118;28;20533;-75
2022/04/01 05:07:38;;;;;;;4.47;2.63;;;0.20;99.90;;;;;;5032585;28;20124;-76
2022/04/01 05:10:08;;;;;;;4.28;2.15;;;0.20;99.90;;;;;;5042870;28;20076;-76
2022/04/01 05:13:16;;;;;;;6.35;2.58;;;0.30;99.90;;;;;;5030910;28;20091;-76
2022/04/01 05:15:44;;;;;;;4.05;2.42;;;0.30;99.90;;;;;;5044664;28;20099;-76
2022/04/01 05:18:12;;;;;;;4.75;2.20;;;0.30;99.90;;;;;;5041138;28;20037;-76
2022/04/01 05:20:46;;;;;;;4.15;2.33;;;0.30;99.90;;;;;;4998850;28;20049;-76
2022/04/01 05:23:15;;;;;;;3.50;2.38;;;0.30;99.90;;;;;;5038913;28;20179;-76
2022/04/01 05:25:55;;;;;;;3.42;2.28;;;0.60;99.90;;;;;;5030624;28;20529;-76
2022/04/01 05:28:24;;;;;;;4.85;2.40;;;0.30;99.90;;;;;;5029072;28;20132;-76
2022/04/01 05:31:13;;;;;;;4.13;2.20;;;0.40;99.90;;;;;;5032044;28;20041;-76
2022/04/01 05:33:51;;;;;;;4.78;2.55;;;0.80;99.90;;;;;;5038035;28;20499;-76
2022/04/01 05:36:17;;;;;;;3.83;2.15;;;0.40;99.90;;;;;;5044720;28;20049;-76
2022/04/01 05:38:45;;;;;;;3.75;2.20;;;0.70;99.90;;;;;;5029850;28;20117;-76
2022/04/01 05:41:11;;;;;;;7.38;2.55;;;0.60;99.90;;;;;;5030601;28;20120;-76
2022/04/01 05:43:41;;;;;;;4.50;2.15;;;0.40;99.90;;;;;;5037112;28;20062;-76
2022/04/01 05:46:09;;;;;;;4.97;2.03;;;0.50;99.90;;;;;;5033599;28;20053;-76
2022/04/01 05:48:36;;;;;;;3.75;2.47;;;0.50;99.90;;;;;;5042077;28;20051;-76
2022/04/01 05:51:05;;;;;;;3.88;2.22;;;0.50;99.90;;;;;;5032511;28;20059;-76
2022/04/01 05:53:33;;;;;;;3.38;1.80;;;0.50;99.90;;;;;;5029521;28;20041;-76
2022/04/01 05:56:00;;;;;;;3.53;2.15;;;0.60;99.90;;;;;;5033284;28;20073;-76
2022/04/01 05:58:27;;;;;;;4.72;2.90;;;0.50;99.90;;;;;;5042187;28;20049;-76
2022/04/01 06:01:09;;;;;;;2.22;1.92;;;0.90;99.90;;;;;;5035236;28;20037;-76
2022/04/01 06:03:43;;;;;;;2.10;1.90;;;0.50;99.90;;;;;;5031902;28;20119;-76
2022/04/01 06:06:26;;;;;;;2.47;1.95;;;0.60;99.90;;;;;;5035083;28;20489;-76
2022/04/01 06:09:07;;;;;;;3.58;1.77;;;0.60;99.90;;;;;;5027518;28;20045;-76
2022/04/01 06:11:42;;;;;;;3.53;1.83;;;0.60;99.90;;;;;;5036087;28;20577;-76
2022/04/01 06:14:46;;;;;;;2.75;1.55;;;0.60;99.90;;;;;;5032037;28;20033;-76
2022/04/01 06:17:24;;;;;;;3.75;2.47;;;0.70;99.90;;;;;;5029297;28;20056;-76
2022/04/01 06:19:53;;;;;;;1.55;1.45;;;0.70;99.90;;;;;;5058903;28;20040;-76
2022/04/01 06:22:20;;;;;;;3.15;1.70;;;0.70;99.90;;;;;;5038756;28;20049;-76
2022/04/01 06:25:10;;;;;;;2.90;1.60;;;0.80;99.90;;;;;;5029174;28;20045;-76
2022/04/01 06:27:54;;;;;;;1.55;1.27;;;0.80;99.90;;;;;;5049235;28;20053;-76
2022/04/01 06:30:21;;;;;;;3.60;1.38;;;0.80;99.90;;;;;;5041939;28;20670;-75
2022/04/01 06:32:56;;;;;;;1.77;1.35;;;0.90;99.90;;;;;;5048669;28;20039;-75
2022/04/01 06:35:29;;;;;;;2.92;1.23;;;0.80;99.90;;;;;;5038418;28;20406;-75
2022/04/01 06:37:59;;;;;;;2.10;1.42;;;0.90;99.90;;;;;;5042062;28;20052;-75
2022/04/01 06:40:31;;;;;;;2.33;0.98;;;0.90;99.90;;;;;;5041471;28;20040;-76
2022/04/01 06:42:57;;;;;;;3.22;1.48;;;0.90;99.90;;;;;;5042807;28;20041;-75
2022/04/01 06:45:23;;;;;;;2.15;1.30;;;1.00;99.90;;;;;;5066560;28;20127;-76
2022/04/01 06:47:49;;;;;;;2.58;1.25;;;1.00;99.90;;;;;;5050525;28;20455;-76
2022/04/01 06:50:16;;;;;;;0.93;0.90;;;1.00;99.90;;;;;;5032530;28;20041;-76
2022/04/01 06:52:43;;;;;;;2.38;1.25;;;1.10;99.90;;;;;;5063151;28;20294;-76
2022/04/01 06:55:10;;;;;;;2.08;1.50;;;1.10;99.90;;;;;;5027907;28;20128;-76
2022/04/01 06:57:36;;;;;;;4.80;1.42;;;1.20;99.90;;;;;;5018762;28;20080;-76
2022/04/01 07:00:08;;;;;;;2.22;1.38;;;1.20;99.90;;;;;;5023774;28;20038;-75
2022/04/01 07:02:35;;;;;;;2.60;1.60;;;1.20;99.90;;;;;;5027027;28;20045;-76
2022/04/01 07:05:02;;;;;;;2.05;1.58;;;1.30;99.90;;;;;;5029133;28;20046;-76
2022/04/01 07:07:28;;;;;;;3.47;1.90;;;1.30;99.90;;;;;;5052188;28;20497;-76
2022/04/01 07:09:54;;;;;;;3.75;1.60;;;1.30;99.90;;;;;;5041677;28;20397;-76
2022/04/01 07:12:21;;;;;;;3.88;2.25;;;1.40;99.90;;;;;;5050083;28;20033;-76
2022/04/01 07:14:47;;;;;;;2.20;1.70;;;1.40;99.90;;;;;;5032775;28;20033;-76
2022/04/01 07:17:13;;;;;;;5.85;2.00;;;1.40;99.90;;;;;;5028394;28;20183;-75
2022/04/01 07:19:38;;;;;;;8.52;2.00;;;1.40;99.90;;;;;;5043651;28;20034;-75
2022/04/01 07:22:06;;;;;;;2.70;1.85;;;1.40;99.90;;;;;;5043898;28;20128;-75
2022/04/01 07:24:32;;;;;;;4.35;1.83;;;1.40;99.90;;;;;;5016305;28;20127;-75
2022/04/01 07:26:58;;;;;;;3.90;2.35;;;1.50;99.90;;;;;;5039287;28;20034;-75
2022/04/01 07:29:24;;;;;;;4.18;1.88;;;1.50;99.90;;;;;;5030923;28;20449;-75
2022/04/01 07:34:38;;;;;;;5.03;2.55;;;1.60;99.90;;;;;;5043478;28;20049;-75
2022/04/01 07:37:07;;;;;;;3.88;2.35;;;1.80;99.90;;;;;;5039670;28;20048;-75
2022/04/01 07:39:33;;;;;;;2.90;1.90;;;1.70;99.90;;;;;;5032054;28;20037;-75
2022/04/01 07:42:00;;;;;;;4.07;1.80;;;1.70;99.90;;;;;;5040528;28;20037;-75
2022/04/01 07:44:26;;;;;;;3.00;2.22;;;1.70;99.90;;;;;;5032146;28;20041;-75
2022/04/01 07:46:52;;;;;;;6.28;2.30;;;1.80;99.90;;;;;;5037721;28;20053;-75
2022/04/01 07:49:19;;;;;;;3.65;2.00;;;1.80;99.90;;;;;;5041766;28;20457;-75
2022/04/01 07:51:45;;;;;;;3.47;1.95;;;2.10;99.90;;;;;;5040797;28;20057;-75
2022/04/01 07:54:12;;;;;;;5.20;2.13;;;1.80;99.90;;;;;;5036681;28;20091;-75
2022/04/01 07:56:40;;;;;;;6.75;2.00;;;2.00;99.90;;;;;;5036825;28;20045;-75
2022/04/01 07:59:10;;;;;;;4.43;2.40;;;1.80;99.90;;;;;;5030558;28;20050;-75
2022/04/01 08:01:36;;;;;;;4.55;2.20;;;1.80;99.90;;;;;;5036936;28;20445;-75
2022/04/01 08:04:03;;;;;;;3.50;2.03;;;2.10;99.90;;;;;;5038991;28;20131;-75
2022/04/01 08:06:30;;;;;;;5.40;2.45;;;1.90;99.90;;;;;;5033833;28;20043;-75
2022/04/01 08:08:58;;;;;;;4.97;2.92;;;2.00;99.90;;;;;;5034477;28;20037;-75
2022/04/01 08:11:25;;;;;;;4.10;2.90;;;2.00;99.90;;;;;;5032294;28;20046;-75
2022/04/01 08:13:50;;;;;;;4.55;2.88;;;2.00;99.90;;;;;;5016327;28;20440;-75
2022/04/01 08:16:16;;;;;;;4.30;2.60;;;2.00;99.90;;;;;;5030701;28;20132;-76
2022/04/01 08:18:42;;;;;;;5.28;2.90;;;2.40;99.90;;;;;;5049135;28;20041;-76
2022/04/01 08:21:08;;;;;;;6.47;2.92;;;2.10;99.90;;;;;;5031571;28;20034;-76
2022/04/01 08:23:37;;;;;;;6.10;2.80;;;2.10;99.90;;;;;;5069896;28;20045;-76
2022/04/01 08:26:04;;;;;;;4.72;2.92;;;2.10;99.90;;;;;;5030077;28;20063;-76
2022/04/01 08:28:30;;;;;;;5.22;3.13;;;2.10;99.90;;;;;;5036678;28;20045;-76
2022/04/01 08:30:56;;;;;;;4.25;3.10;;;2.10;99.90;;;;;;5031315;28;20045;-75
2022/04/01 08:33:23;;;;;;;6.38;2.90;;;2.10;99.90;;;;;;5023916;28;20191;-75
2022/04/01 08:35:49;;;;;;;4.95;3.05;;;2.00;99.90;;;;;;5029749;28;20049;-75
2022/04/01 08:38:15;;;;;;;4.28;2.70;;;2.10;99.90;;;;;;5038701;28;20037;-75
2022/04/01 08:40:41;;;;;;;8.15;3.20;;;2.10;99.90;;;;;;5031205;28;20050;-74
2022/04/01 08:43:07;;;;;;;5.97;3.33;;;2.10;99.90;;;;;;5038387;28;20049;-75
2022/04/01 08:45:35;;;;;;;4.72;3.28;;;2.20;99.90;;;;;;5013849;28;20045;-75
2022/04/01 08:48:09;;;;;;;5.47;3.30;;;2.20;99.90;;;;;;5042126;28;20052;-75
2022/04/01 08:50:35;;;;;;;5.35;3.25;;;2.20;99.90;;;;;;5017446;28;20033;-75
2022/04/01 08:53:00;;;;;;;7.10;3.65;;;2.20;99.90;;;;;;5040563;28;20095;-75
2022/04/01 08:55:27;;;;;;;8.25;4.32;;;2.20;99.90;;;;;;5032040;28;20029;-75
2022/04/01 08:57:53;;;;;;;6.82;3.85;;;2.10;99.90;;;;;;5041315;28;20494;-76
2022/04/01 09:00:18;;;;;;;6.63;3.90;;;2.00;99.90;;;;;;5034169;28;20051;-75
2022/04/01 09:02:53;;;;;;;5.28;3.80;;;2.20;99.90;;;;;;5044273;28;20029;-76
2022/04/01 09:05:20;;;;;;;9.07;4.13;;;2.00;99.90;;;;;;5021121;28;20049;-76
2022/04/01 09:07:47;;;;;;;9.45;3.83;;;2.00;99.90;;;;;;5022343;28;20033;-76
2022/04/01 09:10:13;;;;;;;6.53;4.05;;;2.00;99.90;;;;;;5038191;28;20100;-76
2022/04/01 09:12:50;;;;;;;7.75;5.00;;;2.00;99.90;;;;;;5044214;28;20040;-76
2022/04/01 09:15:15;;;;;;;8.18;4.45;;;1.90;99.90;;;;;;5038581;28;20084;-76
2022/04/01 09:17:43;;;;;;;7.78;4.35;;;2.10;99.90;;;;;;5043743;28;20045;-76
2022/04/01 09:20:10;;;;;;;7.70;4.80;;;2.00;99.90;;;;;;5040504;28;20137;-76
2022/04/01 09:22:38;;;;;;;7.70;4.32;;;2.10;99.90;;;;;;5029177;28;20505;-76
2022/04/01 09:25:07;;;;;;;8.23;5.00;;;2.20;99.90;;;;;;5030185;28;20080;-76
2022/04/01 09:27:36;;;;;;;10.93;5.93;;;2.20;99.90;;;;;;5038213;28;20041;-77
2022/04/01 09:30:05;;;;;;;11.20;5.25;;;2.30;99.90;;;;;;5033851;28;20041;-77
2022/04/01 09:32:45;;;;;;;7.93;5.05;;;2.40;99.90;;;;;;5032956;28;20095;-76
2022/04/01 09:35:12;;;;;;;7.80;4.88;;;2.40;99.90;;;;;;5033613;28;20072;-77
2022/04/01 09:37:38;;;;;;;11.55;5.28;;;2.40;99.90;;;;;;5031310;28;20052;-77
2022/04/01 09:40:05;;;;;;;8.07;4.75;;;2.40;99.90;;;;;;5035110;28;20081;-76
2022/04/01 09:42:32;;;;;;;8.13;5.35;;;2.50;99.90;;;;;;5040922;28;20436;-77
2022/04/01 09:44:58;;;;;;;9.48;5.03;;;2.50;99.90;;;;;;5036677;28;20037;-76
2022/04/01 09:47:24;;;;;;;6.53;5.00;;;2.40;99.90;;;;;;5036552;28;20045;-76
2022/04/01 09:49:53;;;;;;;8.35;4.90;;;2.50;99.90;;;;;;5030863;28;20050;-77
2022/04/01 09:52:20;;;;;;;6.85;5.20;;;2.60;99.90;;;;;;5040594;28;20040;-77
2022/04/01 09:54:50;;;;;;;8.70;5.50;;;2.80;99.90;;;;;;5036661;28;20045;-77
2022/04/01 09:57:17;;;;;;;7.15;4.70;;;2.70;99.90;;;;;;5042079;28;20136;-76
2022/04/01 09:59:44;;;;;;;9.13;5.18;;;2.70;99.90;;;;;;5033179;28;20049;-77
2022/04/01 10:02:10;;;;;;;6.95;5.10;;;2.80;99.90;;;;;;5012689;28;20503;-77
2022/04/01 10:04:35;;;;;;;7.47;5.03;;;2.70;99.90;;;;;;5029897;28;20104;-76
2022/04/01 10:07:03;;;;;;;10.70;5.93;;;2.70;99.90;;;;;;5022171;28;20498;-77
2022/04/01 10:09:30;;;;;;;7.88;5.22;;;2.70;99.90;;;;;;5031931;28;20185;-76
2022/04/01 10:12:00;;;;;;;9.40;5.90;;;2.80;99.90;;;;;;5016218;28;20551;-76
2022/04/01 10:14:29;;;;;;;9.25;5.80;;;2.70;99.90;;;;;;5024796;28;20042;-77
2022/04/01 10:16:57;;;;;;;9.45;6.15;;;2.90;99.90;;;;;;5026347;28;20046;-77
2022/04/01 10:19:27;;;;;;;8.48;5.68;;;2.90;99.90;;;;;;5033745;28;20503;-77
2022/04/01 10:21:53;;;;;;;10.93;5.60;;;2.90;99.90;;;;;;5028547;28;20041;-77
2022/04/01 10:24:34;;;;;;;8.70;6.63;;;2.80;99.90;;;;;;5035413;28;20037;-78
2022/04/01 10:27:29;;;;;;;8.90;5.80;;;2.80;99.90;;;;;;5029148;28;20038;-76
2022/04/01 10:29:57;;;;;;;8.73;5.53;;;2.80;99.90;;;;;;5039326;28;20071;-76
2022/04/01 10:32:29;;;;;;;7.07;5.40;;;2.80;99.90;;;;;;5040209;28;20040;-77
2022/04/01 10:34:58;;;;;;;7.25;5.38;;;2.80;99.90;;;;;;5040745;28;20536;-76
2022/04/01 10:37:25;;;;;;;8.00;5.80;;;2.80;99.90;;;;;;5029459;28;20100;-77
2022/04/01 10:40:00;;;;;;;9.10;5.68;;;2.70;99.90;;;;;;5039793;28;20037;-77
2022/04/01 10:42:31;;;;;;;7.78;5.68;;;2.70;99.90;;;;;;5017823;28;20045;-77
2022/04/01 10:45:00;;;;;;;7.85;5.00;;;2.80;99.90;;;;;;5032588;28;20755;-77
2022/04/01 10:53:34;;;;;;;8.65;5.30;;;2.60;99.90;;;;;;5029272;28;20602;-78
2022/04/01 10:56:25;;;;;;;8.70;4.53;;;2.70;99.90;;;;;;5038704;28;20079;-77
2022/04/01 10:59:19;;;;;;;6.68;4.20;;;2.80;99.90;;;;;;5033090;28;20033;-77
2022/04/01 11:01:56;;;;;;;11.32;4.68;;;2.80;99.90;;;;;;5059142;28;20133;-77
2022/04/01 11:04:21;;;;;;;5.68;3.92;;;3.00;99.90;;;;;;5036640;28;20533;-78
2022/04/01 11:06:51;;;;;;;6.65;4.07;;;3.00;99.90;;;;;;5038030;28;20038;-77
2022/04/01 11:09:38;;;;;;;5.97;4.15;;;2.80;99.90;;;;;;5021470;28;20042;-77
2022/04/01 11:12:16;;;;;;;6.47;3.70;;;2.80;99.90;;;;;;5037795;28;20075;-77
2022/04/01 11:14:54;;;;;;;5.32;3.47;;;2.90;99.90;;;;;;5019537;28;20041;-77
2022/04/01 11:17:26;;;;;;;6.38;3.70;;;2.80;99.90;;;;;;5034523;28;20088;-77
2022/04/01 11:20:02;;;;;;;7.25;3.45;;;2.80;99.90;;;;;;5036726;28;20036;-78
2022/04/01 11:22:36;;;;;;;8.13;3.70;;;2.70;99.90;;;;;;5035733;28;20754;-77
2022/04/01 11:25:06;;;;;;;3.80;2.70;;;2.80;99.90;;;;;;5035714;28;20049;-78
2022/04/01 11:27:33;;;;;;;6.85;4.07;;;2.80;99.90;;;;;;5032646;28;20037;-78
2022/04/01 11:30:12;;;;;;;5.43;3.15;;;2.70;99.90;;;;;;5039074;28;20049;-77
2022/04/01 11:32:39;;;;;;;6.85;3.35;;;2.60;99.90;;;;;;5033984;28;20037;-77
2022/04/01 11:35:06;;;;;;;3.55;2.72;;;2.50;99.90;;;;;;5042080;28;20041;-77
2022/04/01 11:37:46;;;;;;;7.25;3.08;;;2.60;99.90;;;;;;5032637;28;20037;-77
2022/04/01 11:40:15;;;;;;;3.92;2.90;;;2.70;99.90;;;;;;5035056;28;20518;-77
2022/04/01 11:42:57;;;;;;;6.85;3.40;;;2.70;99.90;;;;;;5032217;28;20041;-77
2022/04/01 11:45:23;;;;;;;7.13;3.17;;;2.70;99.90;;;;;;5040867;28;20049;-77
2022/04/01 11:47:50;;;;;;;6.28;3.13;;;2.70;99.90;;;;;;5032103;28;20553;-77
2022/04/01 11:50:18;;;;;;;8.38;3.00;;;2.70;99.90;;;;;;5040146;28;20482;-78
2022/04/01 11:52:47;;;;;;;5.05;3.20;;;2.60;99.90;;;;;;5028937;28;20124;-78
2022/04/01 11:55:15;;;;;;;5.43;3.63;;;2.70;99.90;;;;;;5019844;28;20045;-78
2022/04/01 11:57:42;;;;;;;4.18;3.03;;;2.90;99.90;;;;;;5030579;28;20042;-78
2022/04/01 12:00:17;;;;;;;7.72;2.97;;;2.90;99.90;;;;;;5024082;28;20055;-78
2022/04/01 12:02:44;;;;;;;5.13;3.00;;;2.90;99.90;;;;;;5027050;28;20046;-78
2022/04/01 12:05:10;;;;;;;5.82;2.72;;;2.90;99.90;;;;;;5027437;28;20049;-78
2022/04/01 12:10:23;;;;;;;5.05;3.03;;;2.90;99.90;;;;;;5029576;28;20041;-78
2022/04/01 12:12:56;;;;;;;4.72;3.15;;;3.00;99.90;;;;;;5025524;28;20046;-77
2022/04/01 12:15:35;;;;;;;;;;;3.00;99.90;;;;;;5036125;28;20057;-78
2022/04/01 12:18:02;;;;;;;5.88;2.92;;;3.10;99.90;;;;;;5027088;28;19916;-78
2022/04/01 12:20:28;;;;;;;3.92;2.80;;;3.30;99.90;;;;;;5035993;28;20124;-77
2022/04/01 12:23:01;;;;;;;4.20;2.78;;;3.10;99.90;;;;;;5035704;28;20721;-77
2022/04/01 12:25:30;;;;;;;6.25;3.17;;;3.10;99.90;;;;;;5038701;28;20116;-77
2022/04/01 12:27:58;;;;;;;4.35;2.50;;;3.20;99.90;;;;;;5037163;28;20045;-78
2022/04/01 12:30:38;;;;;;;5.28;2.67;;;3.20;99.90;;;;;;5032068;28;20437;-78
2022/04/01 12:33:08;;;;;;;7.00;2.58;;;3.20;99.90;;;;;;5040764;28;20033;-78
2022/04/01 12:35:34;;;;;;;4.90;2.70;;;3.20;99.90;;;;;;5034306;28;20063;-77
2022/04/01 12:38:09;;;;;;;6.47;3.35;;;3.20;99.90;;;;;;5044054;28;20040;-77
2022/04/01 12:40:44;;;;;;;8.35;3.45;;;3.20;99.90;;;;;;5032963;28;20037;-78
2022/04/01 12:43:45;;;;;;;4.43;2.63;;;3.20;99.90;;;;;;5038943;28;20040;-78
2022/04/01 12:46:13;;;;;;;4.88;2.42;;;3.10;99.90;;;;;;5027140;28;20115;-78
2022/04/01 12:48:51;;;;;;;3.10;2.53;;;3.20;99.90;;;;;;5035255;28;20129;-77
2022/04/01 12:51:24;;;;;;;4.57;2.20;;;3.20;99.90;;;;;;5041350;28;20112;-77
2022/04/01 12:54:03;;;;;;;4.32;2.20;;;3.30;99.90;;;;;;5031260;28;20037;-78
2022/04/01 12:56:38;;;;;;;3.13;2.40;;;3.30;99.90;;;;;;5036785;28;20076;-77
2022/04/01 12:59:12;;;;;;;3.13;2.20;;;3.30;99.90;;;;;;5010848;28;20614;-77
2022/04/01 13:01:40;;;;;;;4.30;2.28;;;3.40;99.90;;;;;;5035617;28;20506;-77
2022/04/01 13:04:07;;;;;;;8.02;2.63;;;3.40;99.90;;;;;;5029767;28;20136;-77
2022/04/01 13:06:33;;;;;;;2.88;1.95;;;3.40;99.90;;;;;;5036081;28;20064;-78
2022/04/01 13:09:08;;;;;;;3.33;2.30;;;3.50;99.90;;;;;;5034308;28;20084;-77
2022/04/01 13:11:45;;;;;;;2.30;1.83;;;3.50;99.90;;;;;;5035103;28;20043;-77
2022/04/01 13:14:19;;;;;;;3.60;2.20;;;3.50;99.90;;;;;;5033422;28;20112;-78
2022/04/01 13:16:46;;;;;;;6.40;2.38;;;3.40;99.90;;;;;;5024657;28;20098;-78
2022/04/01 13:19:21;;;;;;;7.22;2.63;;;3.50;99.90;;;;;;5029643;28;20501;-77
2022/04/01 13:21:47;;;;;;;4.25;2.05;;;3.40;99.90;;;;;;5029932;28;20064;-77
2022/04/01 13:24:18;;;;;;;3.50;1.70;;;3.40;99.90;;;;;;5023754;28;20060;-77